sensor_id;sensor_type;location;lat;lon;timestamp;P1;durP1;ratioP1;P2;durP2;ratioP2
26977;SDS011;56314;48.088;11.642;2023-06-19T00:01:15;11.85;;;8.80;;
26977;SDS011;56314;48.088;11.642;2023-06-19T00:03:40;9.70;;;7.55;;
26977;SDS011;56314;48.088;11.642;2023-06-19T00:06:06;10.13;;;8.63;;
26977;SDS011;56314;48.088;11.642;2023-06-19T00:08:31;9.88;;;8.32;;
26977;SDS011;56314;48.088;11.642;2023-06-19T00:10:57;10.38;;;8.13;;
26977;SDS011;56314;48.088;11.642;2023-06-19T00:13:22;11.27;;;8.30;;
26977;SDS011;56314;48.088;11.642;2023-06-19T00:15:47;9.65;;;8.50;;
26977;SDS011;56314;48.088;11.642;2023-06-19T00:18:13;9.20;;;8.00;;
26977;SDS011;56314;48.088;11.642;2023-06-19T00:20:38;10.38;;;8.60;;
26977;SDS011;56314;48.088;11.642;2023-06-19T00:23:04;9.43;;;7.85;;
26977;SDS011;56314;48.088;11.642;2023-06-19T00:25:31;11.10;;;8.60;;
26977;SDS011;56314;48.088;11.642;2023-06-19T00:27:56;10.00;;;8.73;;
26977;SDS011;56314;48.088;11.642;2023-06-19T00:30:22;10.55;;;7.85;;
26977;SDS011;56314;48.088;11.642;2023-06-19T00:32:47;10.77;;;8.32;;
26977;SDS011;56314;48.088;11.642;2023-06-19T00:35:14;11.85;;;8.63;;
26977;SDS011;56314;48.088;11.642;2023-06-19T00:37:40;13.70;;;9.02;;
26977;SDS011;56314;48.088;11.642;2023-06-19T00:40:09;9.80;;;8.48;;
26977;SDS011;56314;48.088;11.642;2023-06-19T00:42:39;12.38;;;9.02;;
26977;SDS011;56314;48.088;11.642;2023-06-19T00:45:04;9.32;;;8.32;;
26977;SDS011;56314;48.088;11.642;2023-06-19T00:47:30;10.35;;;8.73;;
26977;SDS011;56314;48.088;11.642;2023-06-19T00:49:58;10.02;;;8.35;;
26977;SDS011;56314;48.088;11.642;2023-06-19T00:52:24;12.05;;;8.45;;
26977;SDS011;56314;48.088;11.642;2023-06-19T00:54:49;11.93;;;7.78;;
26977;SDS011;56314;48.088;11.642;2023-06-19T00:57:15;8.98;;;7.93;;
26977;SDS011;56314;48.088;11.642;2023-06-19T00:59:41;12.18;;;8.10;;
26977;SDS011;56314;48.088;11.642;2023-06-19T01:02:07;9.27;;;8.07;;
26977;SDS011;56314;48.088;11.642;2023-06-19T01:04:32;11.23;;;8.77;;
26977;SDS011;56314;48.088;11.642;2023-06-19T01:07:00;10.02;;;8.55;;
26977;SDS011;56314;48.088;11.642;2023-06-19T01:09:36;11.50;;;8.82;;
26977;SDS011;56314;48.088;11.642;2023-06-19T01:12:10;10.25;;;7.75;;
26977;SDS011;56314;48.088;11.642;2023-06-19T01:14:48;11.63;;;8.70;;
26977;SDS011;56314;48.088;11.642;2023-06-19T01:17:18;9.98;;;8.57;;
26977;SDS011;56314;48.088;11.642;2023-06-19T01:19:43;11.48;;;8.20;;
26977;SDS011;56314;48.088;11.642;2023-06-19T01:22:09;10.88;;;7.85;;
26977;SDS011;56314;48.088;11.642;2023-06-19T01:24:34;9.07;;;7.90;;
26977;SDS011;56314;48.088;11.642;2023-06-19T01:26:59;8.45;;;7.63;;
26977;SDS011;56314;48.088;11.642;2023-06-19T01:29:25;11.57;;;8.13;;
26977;SDS011;56314;48.088;11.642;2023-06-19T01:31:53;10.27;;;8.23;;
26977;SDS011;56314;48.088;11.642;2023-06-19T01:34:23;11.32;;;8.40;;
26977;SDS011;56314;48.088;11.642;2023-06-19T01:36:50;10.18;;;7.85;;
26977;SDS011;56314;48.088;11.642;2023-06-19T01:39:17;12.27;;;8.13;;
26977;SDS011;56314;48.088;11.642;2023-06-19T01:41:45;10.70;;;8.15;;
26977;SDS011;56314;48.088;11.642;2023-06-19T01:44:11;9.85;;;8.55;;
26977;SDS011;56314;48.088;11.642;2023-06-19T01:46:37;11.98;;;8.23;;
26977;SDS011;56314;48.088;11.642;2023-06-19T01:49:05;10.70;;;8.13;;
26977;SDS011;56314;48.088;11.642;2023-06-19T01:51:31;10.75;;;8.23;;
26977;SDS011;56314;48.088;11.642;2023-06-19T01:53:57;9.10;;;8.07;;
26977;SDS011;56314;48.088;11.642;2023-06-19T01:56:22;10.55;;;7.60;;
26977;SDS011;56314;48.088;11.642;2023-06-19T01:58:49;10.07;;;7.97;;
26977;SDS011;56314;48.088;11.642;2023-06-19T02:01:14;9.98;;;7.45;;
26977;SDS011;56314;48.088;11.642;2023-06-19T02:03:40;10.02;;;7.93;;
26977;SDS011;56314;48.088;11.642;2023-06-19T02:06:05;12.57;;;8.82;;
26977;SDS011;56314;48.088;11.642;2023-06-19T02:08:30;15.18;;;8.27;;
26977;SDS011;56314;48.088;11.642;2023-06-19T02:10:55;9.93;;;8.90;;
26977;SDS011;56314;48.088;11.642;2023-06-19T02:13:21;9.02;;;7.68;;
26977;SDS011;56314;48.088;11.642;2023-06-19T02:15:46;8.57;;;7.53;;
26977;SDS011;56314;48.088;11.642;2023-06-19T02:18:11;10.15;;;8.90;;
26977;SDS011;56314;48.088;11.642;2023-06-19T02:20:37;14.20;;;9.00;;
26977;SDS011;56314;48.088;11.642;2023-06-19T02:23:02;10.45;;;8.65;;
26977;SDS011;56314;48.088;11.642;2023-06-19T02:25:27;9.82;;;8.32;;
26977;SDS011;56314;48.088;11.642;2023-06-19T02:27:53;11.85;;;7.95;;
26977;SDS011;56314;48.088;11.642;2023-06-19T02:30:18;11.20;;;8.20;;
26977;SDS011;56314;48.088;11.642;2023-06-19T02:32:43;10.57;;;7.85;;
26977;SDS011;56314;48.088;11.642;2023-06-19T02:35:09;11.07;;;8.65;;
26977;SDS011;56314;48.088;11.642;2023-06-19T02:37:36;9.98;;;8.70;;
26977;SDS011;56314;48.088;11.642;2023-06-19T02:40:04;11.10;;;8.93;;
26977;SDS011;56314;48.088;11.642;2023-06-19T02:42:31;11.82;;;8.55;;
26977;SDS011;56314;48.088;11.642;2023-06-19T02:44:56;9.65;;;8.25;;
26977;SDS011;56314;48.088;11.642;2023-06-19T02:47:28;9.93;;;8.23;;
26977;SDS011;56314;48.088;11.642;2023-06-19T02:49:53;10.88;;;8.15;;
26977;SDS011;56314;48.088;11.642;2023-06-19T02:52:19;10.65;;;8.20;;
26977;SDS011;56314;48.088;11.642;2023-06-19T02:54:44;8.48;;;7.28;;
26977;SDS011;56314;48.088;11.642;2023-06-19T02:57:09;13.55;;;8.18;;
26977;SDS011;56314;48.088;11.642;2023-06-19T02:59:35;11.32;;;8.23;;
26977;SDS011;56314;48.088;11.642;2023-06-19T03:02:00;11.77;;;7.70;;
26977;SDS011;56314;48.088;11.642;2023-06-19T03:04:25;10.18;;;7.88;;
26977;SDS011;56314;48.088;11.642;2023-06-19T03:06:51;8.85;;;7.90;;
26977;SDS011;56314;48.088;11.642;2023-06-19T03:09:16;13.10;;;9.10;;
26977;SDS011;56314;48.088;11.642;2023-06-19T03:11:41;9.98;;;8.23;;
26977;SDS011;56314;48.088;11.642;2023-06-19T03:14:07;11.02;;;8.52;;
26977;SDS011;56314;48.088;11.642;2023-06-19T03:16:33;9.35;;;8.45;;
26977;SDS011;56314;48.088;11.642;2023-06-19T03:19:00;10.95;;;9.10;;
26977;SDS011;56314;48.088;11.642;2023-06-19T03:21:25;10.05;;;7.90;;
26977;SDS011;56314;48.088;11.642;2023-06-19T03:23:51;10.13;;;8.50;;
26977;SDS011;56314;48.088;11.642;2023-06-19T03:26:18;9.77;;;7.80;;
26977;SDS011;56314;48.088;11.642;2023-06-19T03:28:44;10.70;;;7.97;;
26977;SDS011;56314;48.088;11.642;2023-06-19T03:31:11;9.65;;;8.05;;
26977;SDS011;56314;48.088;11.642;2023-06-19T03:33:36;10.90;;;8.27;;
26977;SDS011;56314;48.088;11.642;2023-06-19T03:36:02;10.77;;;8.45;;
26977;SDS011;56314;48.088;11.642;2023-06-19T03:38:28;9.70;;;8.18;;
26977;SDS011;56314;48.088;11.642;2023-06-19T03:40:53;10.40;;;8.10;;
26977;SDS011;56314;48.088;11.642;2023-06-19T03:43:19;11.05;;;7.65;;
26977;SDS011;56314;48.088;11.642;2023-06-19T03:45:44;9.10;;;7.57;;
26977;SDS011;56314;48.088;11.642;2023-06-19T03:48:09;9.27;;;8.00;;
26977;SDS011;56314;48.088;11.642;2023-06-19T03:50:35;10.68;;;7.55;;
26977;SDS011;56314;48.088;11.642;2023-06-19T03:53:00;9.85;;;7.80;;
26977;SDS011;56314;48.088;11.642;2023-06-19T03:55:25;9.40;;;7.68;;
26977;SDS011;56314;48.088;11.642;2023-06-19T03:57:51;12.18;;;7.97;;
26977;SDS011;56314;48.088;11.642;2023-06-19T04:00:17;8.85;;;7.90;;
26977;SDS011;56314;48.088;11.642;2023-06-19T04:02:43;9.75;;;7.95;;
26977;SDS011;56314;48.088;11.642;2023-06-19T04:05:11;9.60;;;8.07;;
26977;SDS011;56314;48.088;11.642;2023-06-19T04:07:37;10.63;;;8.20;;
26977;SDS011;56314;48.088;11.642;2023-06-19T04:10:02;10.23;;;8.18;;
26977;SDS011;56314;48.088;11.642;2023-06-19T04:12:28;10.65;;;8.23;;
26977;SDS011;56314;48.088;11.642;2023-06-19T04:14:53;10.77;;;7.57;;
26977;SDS011;56314;48.088;11.642;2023-06-19T04:17:18;10.40;;;8.30;;
26977;SDS011;56314;48.088;11.642;2023-06-19T04:19:44;9.98;;;8.15;;
26977;SDS011;56314;48.088;11.642;2023-06-19T04:22:09;11.63;;;7.45;;
26977;SDS011;56314;48.088;11.642;2023-06-19T04:24:35;7.95;;;7.15;;
26977;SDS011;56314;48.088;11.642;2023-06-19T04:27:00;10.15;;;8.25;;
26977;SDS011;56314;48.088;11.642;2023-06-19T04:29:26;10.45;;;8.40;;
26977;SDS011;56314;48.088;11.642;2023-06-19T04:31:51;9.95;;;7.43;;
26977;SDS011;56314;48.088;11.642;2023-06-19T04:34:17;9.38;;;7.45;;
26977;SDS011;56314;48.088;11.642;2023-06-19T04:36:48;12.75;;;8.27;;
26977;SDS011;56314;48.088;11.642;2023-06-19T04:39:14;12.13;;;8.82;;
26977;SDS011;56314;48.088;11.642;2023-06-19T04:41:40;10.77;;;8.35;;
26977;SDS011;56314;48.088;11.642;2023-06-19T04:44:08;11.30;;;8.55;;
26977;SDS011;56314;48.088;11.642;2023-06-19T04:46:34;10.88;;;8.13;;
26977;SDS011;56314;48.088;11.642;2023-06-19T04:49:00;10.85;;;8.23;;
26977;SDS011;56314;48.088;11.642;2023-06-19T04:51:25;10.52;;;7.45;;
26977;SDS011;56314;48.088;11.642;2023-06-19T04:53:51;10.30;;;7.97;;
26977;SDS011;56314;48.088;11.642;2023-06-19T04:56:16;11.95;;;7.93;;
26977;SDS011;56314;48.088;11.642;2023-06-19T04:58:42;9.43;;;8.07;;
26977;SDS011;56314;48.088;11.642;2023-06-19T05:01:14;12.65;;;8.77;;
26977;SDS011;56314;48.088;11.642;2023-06-19T05:03:40;10.45;;;8.32;;
26977;SDS011;56314;48.088;11.642;2023-06-19T05:06:07;12.65;;;7.88;;
26977;SDS011;56314;48.088;11.642;2023-06-19T05:08:33;9.48;;;7.72;;
26977;SDS011;56314;48.088;11.642;2023-06-19T05:10:59;15.13;;;9.82;;
26977;SDS011;56314;48.088;11.642;2023-06-19T05:13:24;12.38;;;9.65;;
26977;SDS011;56314;48.088;11.642;2023-06-19T05:15:49;13.63;;;8.85;;
26977;SDS011;56314;48.088;11.642;2023-06-19T05:18:17;13.60;;;8.85;;
26977;SDS011;56314;48.088;11.642;2023-06-19T05:20:43;10.27;;;7.75;;
26977;SDS011;56314;48.088;11.642;2023-06-19T05:23:09;9.80;;;7.95;;
26977;SDS011;56314;48.088;11.642;2023-06-19T05:25:35;9.50;;;7.88;;
26977;SDS011;56314;48.088;11.642;2023-06-19T05:28:00;13.73;;;8.35;;
26977;SDS011;56314;48.088;11.642;2023-06-19T05:30:25;12.75;;;7.65;;
26977;SDS011;56314;48.088;11.642;2023-06-19T05:32:51;10.90;;;7.72;;
26977;SDS011;56314;48.088;11.642;2023-06-19T05:35:16;13.80;;;8.95;;
26977;SDS011;56314;48.088;11.642;2023-06-19T05:37:41;9.27;;;7.78;;
26977;SDS011;56314;48.088;11.642;2023-06-19T05:40:08;10.55;;;8.35;;
26977;SDS011;56314;48.088;11.642;2023-06-19T05:42:35;10.25;;;8.07;;
26977;SDS011;56314;48.088;11.642;2023-06-19T05:45:01;11.90;;;8.38;;
26977;SDS011;56314;48.088;11.642;2023-06-19T05:47:27;10.52;;;7.82;;
26977;SDS011;56314;48.088;11.642;2023-06-19T05:49:54;8.73;;;7.30;;
26977;SDS011;56314;48.088;11.642;2023-06-19T05:52:19;8.70;;;7.75;;
26977;SDS011;56314;48.088;11.642;2023-06-19T05:54:46;12.63;;;8.05;;
26977;SDS011;56314;48.088;11.642;2023-06-19T05:57:11;10.55;;;7.97;;
26977;SDS011;56314;48.088;11.642;2023-06-19T05:59:36;10.90;;;8.13;;
26977;SDS011;56314;48.088;11.642;2023-06-19T06:02:02;13.43;;;8.77;;
26977;SDS011;56314;48.088;11.642;2023-06-19T06:04:28;9.48;;;7.78;;
26977;SDS011;56314;48.088;11.642;2023-06-19T06:06:53;11.10;;;8.35;;
26977;SDS011;56314;48.088;11.642;2023-06-19T06:09:19;11.10;;;8.27;;
26977;SDS011;56314;48.088;11.642;2023-06-19T06:11:44;12.18;;;8.23;;
26977;SDS011;56314;48.088;11.642;2023-06-19T06:14:10;9.98;;;7.95;;
26977;SDS011;56314;48.088;11.642;2023-06-19T06:16:35;9.85;;;7.05;;
26977;SDS011;56314;48.088;11.642;2023-06-19T06:19:01;8.88;;;7.05;;
26977;SDS011;56314;48.088;11.642;2023-06-19T06:21:26;9.77;;;7.10;;
26977;SDS011;56314;48.088;11.642;2023-06-19T06:23:51;11.20;;;7.32;;
26977;SDS011;56314;48.088;11.642;2023-06-19T06:26:17;9.65;;;7.53;;
26977;SDS011;56314;48.088;11.642;2023-06-19T06:28:43;8.65;;;7.15;;
26977;SDS011;56314;48.088;11.642;2023-06-19T06:31:09;10.85;;;7.28;;
26977;SDS011;56314;48.088;11.642;2023-06-19T06:33:34;8.02;;;7.07;;
26977;SDS011;56314;48.088;11.642;2023-06-19T06:35:59;10.75;;;7.63;;
26977;SDS011;56314;48.088;11.642;2023-06-19T06:38:25;9.25;;;7.15;;
26977;SDS011;56314;48.088;11.642;2023-06-19T06:40:50;8.98;;;7.05;;
26977;SDS011;56314;48.088;11.642;2023-06-19T06:43:16;7.68;;;6.57;;
26977;SDS011;56314;48.088;11.642;2023-06-19T06:45:41;9.57;;;6.95;;
26977;SDS011;56314;48.088;11.642;2023-06-19T06:48:07;8.27;;;6.88;;
26977;SDS011;56314;48.088;11.642;2023-06-19T06:50:33;9.95;;;7.50;;
26977;SDS011;56314;48.088;11.642;2023-06-19T06:52:58;9.05;;;7.07;;
26977;SDS011;56314;48.088;11.642;2023-06-19T06:55:24;8.98;;;6.65;;
26977;SDS011;56314;48.088;11.642;2023-06-19T06:57:49;8.25;;;6.70;;
26977;SDS011;56314;48.088;11.642;2023-06-19T07:00:14;6.63;;;5.93;;
26977;SDS011;56314;48.088;11.642;2023-06-19T07:02:40;9.52;;;6.63;;
26977;SDS011;56314;48.088;11.642;2023-06-19T07:05:09;8.50;;;6.32;;
26977;SDS011;56314;48.088;11.642;2023-06-19T07:07:36;8.98;;;6.40;;
26977;SDS011;56314;48.088;11.642;2023-06-19T07:10:01;6.65;;;5.97;;
26977;SDS011;56314;48.088;11.642;2023-06-19T07:12:27;9.75;;;5.80;;
26977;SDS011;56314;48.088;11.642;2023-06-19T07:14:55;7.40;;;6.50;;
26977;SDS011;56314;48.088;11.642;2023-06-19T07:17:21;6.30;;;5.60;;
26977;SDS011;56314;48.088;11.642;2023-06-19T07:19:46;6.18;;;5.57;;
26977;SDS011;56314;48.088;11.642;2023-06-19T07:22:12;7.65;;;5.85;;
26977;SDS011;56314;48.088;11.642;2023-06-19T07:24:39;7.28;;;5.80;;
26977;SDS011;56314;48.088;11.642;2023-06-19T07:27:05;7.07;;;6.05;;
26977;SDS011;56314;48.088;11.642;2023-06-19T07:29:31;7.03;;;5.70;;
26977;SDS011;56314;48.088;11.642;2023-06-19T07:31:57;6.70;;;6.00;;
26977;SDS011;56314;48.088;11.642;2023-06-19T07:34:23;7.72;;;6.38;;
26977;SDS011;56314;48.088;11.642;2023-06-19T07:36:48;6.75;;;6.00;;
26977;SDS011;56314;48.088;11.642;2023-06-19T07:39:14;6.25;;;5.65;;
26977;SDS011;56314;48.088;11.642;2023-06-19T07:41:39;7.38;;;5.80;;
26977;SDS011;56314;48.088;11.642;2023-06-19T07:44:05;5.65;;;5.05;;
26977;SDS011;56314;48.088;11.642;2023-06-19T07:46:30;6.68;;;5.55;;
26977;SDS011;56314;48.088;11.642;2023-06-19T07:48:55;6.32;;;5.68;;
26977;SDS011;56314;48.088;11.642;2023-06-19T07:51:21;6.15;;;5.10;;
26977;SDS011;56314;48.088;11.642;2023-06-19T07:53:46;5.32;;;4.82;;
26977;SDS011;56314;48.088;11.642;2023-06-19T07:56:11;7.03;;;4.97;;
26977;SDS011;56314;48.088;11.642;2023-06-19T07:58:37;8.13;;;4.97;;
26977;SDS011;56314;48.088;11.642;2023-06-19T08:01:02;5.32;;;4.53;;
26977;SDS011;56314;48.088;11.642;2023-06-19T08:03:27;6.33;;;4.87;;
26977;SDS011;56314;48.088;11.642;2023-06-19T08:05:53;6.55;;;4.93;;
26977;SDS011;56314;48.088;11.642;2023-06-19T08:08:18;5.57;;;4.18;;
26977;SDS011;56314;48.088;11.642;2023-06-19T08:10:43;4.47;;;3.90;;
26977;SDS011;56314;48.088;11.642;2023-06-19T08:13:09;4.03;;;3.72;;
26977;SDS011;56314;48.088;11.642;2023-06-19T08:15:36;4.63;;;3.97;;
26977;SDS011;56314;48.088;11.642;2023-06-19T08:18:02;4.93;;;4.50;;
26977;SDS011;56314;48.088;11.642;2023-06-19T08:20:27;4.60;;;3.80;;
26977;SDS011;56314;48.088;11.642;2023-06-19T08:22:53;4.45;;;4.00;;
26977;SDS011;56314;48.088;11.642;2023-06-19T08:25:18;4.00;;;3.70;;
26977;SDS011;56314;48.088;11.642;2023-06-19T08:27:43;4.00;;;3.55;;
26977;SDS011;56314;48.088;11.642;2023-06-19T08:30:10;5.05;;;4.30;;
26977;SDS011;56314;48.088;11.642;2023-06-19T08:32:35;5.15;;;3.85;;
26977;SDS011;56314;48.088;11.642;2023-06-19T08:35:01;4.72;;;3.83;;
26977;SDS011;56314;48.088;11.642;2023-06-19T08:37:26;8.10;;;4.15;;
26977;SDS011;56314;48.088;11.642;2023-06-19T08:39:52;5.38;;;4.30;;
26977;SDS011;56314;48.088;11.642;2023-06-19T08:42:17;4.57;;;4.18;;
26977;SDS011;56314;48.088;11.642;2023-06-19T08:44:42;4.63;;;4.07;;
26977;SDS011;56314;48.088;11.642;2023-06-19T08:47:08;4.60;;;4.03;;
26977;SDS011;56314;48.088;11.642;2023-06-19T08:49:35;4.68;;;4.28;;
26977;SDS011;56314;48.088;11.642;2023-06-19T08:52:01;4.97;;;4.47;;
26977;SDS011;56314;48.088;11.642;2023-06-19T08:54:28;5.35;;;3.63;;
26977;SDS011;56314;48.088;11.642;2023-06-19T08:56:54;5.05;;;3.97;;
26977;SDS011;56314;48.088;11.642;2023-06-19T08:59:19;4.10;;;3.80;;
26977;SDS011;56314;48.088;11.642;2023-06-19T09:04:21;3.83;;;3.50;;
26977;SDS011;56314;48.088;11.642;2023-06-19T09:06:52;4.65;;;3.63;;
26977;SDS011;56314;48.088;11.642;2023-06-19T09:09:20;4.22;;;3.92;;
26977;SDS011;56314;48.088;11.642;2023-06-19T09:12:08;3.90;;;3.60;;
26977;SDS011;56314;48.088;11.642;2023-06-19T09:14:40;3.88;;;3.55;;
26977;SDS011;56314;48.088;11.642;2023-06-19T09:17:10;3.83;;;3.42;;
26977;SDS011;56314;48.088;11.642;2023-06-19T09:19:36;3.78;;;3.47;;
26977;SDS011;56314;48.088;11.642;2023-06-19T09:22:03;3.17;;;2.88;;
26977;SDS011;56314;48.088;11.642;2023-06-19T09:24:36;3.22;;;3.00;;
26977;SDS011;56314;48.088;11.642;2023-06-19T09:27:16;3.25;;;2.95;;
26977;SDS011;56314;48.088;11.642;2023-06-19T09:29:46;4.40;;;3.13;;
26977;SDS011;56314;48.088;11.642;2023-06-19T09:34:42;3.75;;;3.45;;
26977;SDS011;56314;48.088;11.642;2023-06-19T09:37:07;3.60;;;3.30;;
26977;SDS011;56314;48.088;11.642;2023-06-19T09:39:34;6.43;;;2.85;;
26977;SDS011;56314;48.088;11.642;2023-06-19T09:42:02;2.45;;;2.30;;
26977;SDS011;56314;48.088;11.642;2023-06-19T09:44:30;2.30;;;2.10;;
26977;SDS011;56314;48.088;11.642;2023-06-19T09:46:56;2.53;;;2.33;;
26977;SDS011;56314;48.088;11.642;2023-06-19T09:49:24;2.15;;;1.95;;
26977;SDS011;56314;48.088;11.642;2023-06-19T09:51:53;2.72;;;2.45;;
26977;SDS011;56314;48.088;11.642;2023-06-19T09:54:19;3.13;;;2.85;;
26977;SDS011;56314;48.088;11.642;2023-06-19T09:56:46;2.47;;;2.25;;
26977;SDS011;56314;48.088;11.642;2023-06-19T09:59:16;2.80;;;2.15;;
26977;SDS011;56314;48.088;11.642;2023-06-19T10:01:43;3.17;;;2.88;;
26977;SDS011;56314;48.088;11.642;2023-06-19T10:04:09;2.90;;;2.60;;
26977;SDS011;56314;48.088;11.642;2023-06-19T10:06:45;3.05;;;2.50;;
26977;SDS011;56314;48.088;11.642;2023-06-19T10:09:11;2.83;;;2.63;;
26977;SDS011;56314;48.088;11.642;2023-06-19T10:11:46;3.60;;;2.80;;
26977;SDS011;56314;48.088;11.642;2023-06-19T10:14:15;3.10;;;2.90;;
26977;SDS011;56314;48.088;11.642;2023-06-19T10:16:43;3.65;;;2.50;;
26977;SDS011;56314;48.088;11.642;2023-06-19T10:19:13;2.90;;;2.70;;
26977;SDS011;56314;48.088;11.642;2023-06-19T10:24:17;3.50;;;3.17;;
26977;SDS011;56314;48.088;11.642;2023-06-19T10:27:01;3.85;;;3.55;;
26977;SDS011;56314;48.088;11.642;2023-06-19T10:29:40;4.13;;;3.80;;
26977;SDS011;56314;48.088;11.642;2023-06-19T10:32:06;4.32;;;3.45;;
26977;SDS011;56314;48.088;11.642;2023-06-19T10:34:35;3.67;;;3.38;;
26977;SDS011;56314;48.088;11.642;2023-06-19T10:37:01;4.65;;;3.92;;
26977;SDS011;56314;48.088;11.642;2023-06-19T10:39:26;4.10;;;3.75;;
26977;SDS011;56314;48.088;11.642;2023-06-19T10:41:52;4.28;;;3.88;;
26977;SDS011;56314;48.088;11.642;2023-06-19T10:44:17;4.10;;;3.80;;
26977;SDS011;56314;48.088;11.642;2023-06-19T10:46:43;4.07;;;3.63;;
26977;SDS011;56314;48.088;11.642;2023-06-19T10:49:08;4.67;;;4.17;;
26977;SDS011;56314;48.088;11.642;2023-06-19T10:51:38;4.43;;;4.05;;
26977;SDS011;56314;48.088;11.642;2023-06-19T10:54:05;5.03;;;4.30;;
26977;SDS011;56314;48.088;11.642;2023-06-19T10:56:31;4.43;;;4.03;;
26977;SDS011;56314;48.088;11.642;2023-06-19T10:58:57;4.28;;;3.97;;
26977;SDS011;56314;48.088;11.642;2023-06-19T11:01:23;4.07;;;3.72;;
26977;SDS011;56314;48.088;11.642;2023-06-19T11:04:01;4.05;;;3.75;;
26977;SDS011;56314;48.088;11.642;2023-06-19T11:06:30;4.10;;;3.80;;
26977;SDS011;56314;48.088;11.642;2023-06-19T11:08:56;5.03;;;4.30;;
26977;SDS011;56314;48.088;11.642;2023-06-19T11:11:22;5.03;;;4.63;;
26977;SDS011;56314;48.088;11.642;2023-06-19T11:13:47;4.18;;;3.72;;
26977;SDS011;56314;48.088;11.642;2023-06-19T11:16:14;4.60;;;4.20;;
26977;SDS011;56314;48.088;11.642;2023-06-19T11:18:39;4.68;;;4.15;;
26977;SDS011;56314;48.088;11.642;2023-06-19T11:21:05;5.20;;;4.60;;
26977;SDS011;56314;48.088;11.642;2023-06-19T11:23:30;5.30;;;4.40;;
26977;SDS011;56314;48.088;11.642;2023-06-19T11:26:05;5.28;;;4.40;;
26977;SDS011;56314;48.088;11.642;2023-06-19T11:28:31;5.03;;;4.43;;
26977;SDS011;56314;48.088;11.642;2023-06-19T11:30:58;4.10;;;3.70;;
26977;SDS011;56314;48.088;11.642;2023-06-19T11:33:24;3.83;;;3.45;;
26977;SDS011;56314;48.088;11.642;2023-06-19T11:35:50;3.75;;;3.45;;
26977;SDS011;56314;48.088;11.642;2023-06-19T11:38:17;3.55;;;3.25;;
26977;SDS011;56314;48.088;11.642;2023-06-19T11:40:47;3.15;;;2.95;;
26977;SDS011;56314;48.088;11.642;2023-06-19T11:43:23;3.67;;;3.38;;
26977;SDS011;56314;48.088;11.642;2023-06-19T11:45:52;3.53;;;3.22;;
26977;SDS011;56314;48.088;11.642;2023-06-19T11:48:26;3.33;;;3.10;;
26977;SDS011;56314;48.088;11.642;2023-06-19T11:50:52;3.38;;;3.08;;
26977;SDS011;56314;48.088;11.642;2023-06-19T11:53:22;4.05;;;3.10;;
26977;SDS011;56314;48.088;11.642;2023-06-19T11:55:49;3.95;;;3.65;;
26977;SDS011;56314;48.088;11.642;2023-06-19T11:58:15;4.13;;;3.70;;
26977;SDS011;56314;48.088;11.642;2023-06-19T12:00:40;3.78;;;3.47;;
26977;SDS011;56314;48.088;11.642;2023-06-19T12:03:06;3.67;;;3.38;;
26977;SDS011;56314;48.088;11.642;2023-06-19T12:05:32;4.10;;;3.63;;
26977;SDS011;56314;48.088;11.642;2023-06-19T12:07:57;5.00;;;3.47;;
26977;SDS011;56314;48.088;11.642;2023-06-19T12:10:23;7.00;;;4.13;;
26977;SDS011;56314;48.088;11.642;2023-06-19T12:12:48;3.95;;;3.60;;
26977;SDS011;56314;48.088;11.642;2023-06-19T12:15:13;3.40;;;3.10;;
26977;SDS011;56314;48.088;11.642;2023-06-19T12:17:39;5.88;;;3.58;;
26977;SDS011;56314;48.088;11.642;2023-06-19T12:20:05;4.15;;;3.33;;
26977;SDS011;56314;48.088;11.642;2023-06-19T12:22:31;3.95;;;3.42;;
26977;SDS011;56314;48.088;11.642;2023-06-19T12:24:58;4.07;;;3.58;;
26977;SDS011;56314;48.088;11.642;2023-06-19T12:27:23;3.63;;;3.22;;
26977;SDS011;56314;48.088;11.642;2023-06-19T12:29:49;5.35;;;3.85;;
26977;SDS011;56314;48.088;11.642;2023-06-19T12:32:14;3.90;;;3.60;;
26977;SDS011;56314;48.088;11.642;2023-06-19T12:34:39;4.07;;;3.67;;
26977;SDS011;56314;48.088;11.642;2023-06-19T12:37:05;4.32;;;3.63;;
26977;SDS011;56314;48.088;11.642;2023-06-19T12:39:31;4.53;;;3.72;;
26977;SDS011;56314;48.088;11.642;2023-06-19T12:41:57;3.92;;;3.53;;
26977;SDS011;56314;48.088;11.642;2023-06-19T12:44:23;5.38;;;3.70;;
26977;SDS011;56314;48.088;11.642;2023-06-19T12:46:49;3.75;;;3.42;;
26977;SDS011;56314;48.088;11.642;2023-06-19T12:49:15;5.53;;;3.42;;
26977;SDS011;56314;48.088;11.642;2023-06-19T12:51:40;3.70;;;3.28;;
26977;SDS011;56314;48.088;11.642;2023-06-19T12:54:05;4.38;;;3.58;;
26977;SDS011;56314;48.088;11.642;2023-06-19T12:56:31;5.63;;;3.60;;
26977;SDS011;56314;48.088;11.642;2023-06-19T12:58:56;4.05;;;3.65;;
26977;SDS011;56314;48.088;11.642;2023-06-19T13:01:21;5.93;;;3.80;;
26977;SDS011;56314;48.088;11.642;2023-06-19T13:03:47;4.03;;;3.47;;
26977;SDS011;56314;48.088;11.642;2023-06-19T13:06:12;3.22;;;2.92;;
26977;SDS011;56314;48.088;11.642;2023-06-19T13:08:37;3.53;;;3.22;;
26977;SDS011;56314;48.088;11.642;2023-06-19T13:11:03;4.03;;;3.67;;
26977;SDS011;56314;48.088;11.642;2023-06-19T13:13:28;3.78;;;3.47;;
26977;SDS011;56314;48.088;11.642;2023-06-19T13:15:54;8.35;;;3.83;;
26977;SDS011;56314;48.088;11.642;2023-06-19T13:18:19;4.38;;;3.83;;
26977;SDS011;56314;48.088;11.642;2023-06-19T13:20:44;4.43;;;3.80;;
26977;SDS011;56314;48.088;11.642;2023-06-19T13:23:12;4.45;;;4.05;;
26977;SDS011;56314;48.088;11.642;2023-06-19T13:25:39;4.32;;;4.00;;
26977;SDS011;56314;48.088;11.642;2023-06-19T13:28:04;5.72;;;3.88;;
26977;SDS011;56314;48.088;11.642;2023-06-19T13:30:30;4.10;;;3.70;;
26977;SDS011;56314;48.088;11.642;2023-06-19T13:32:55;4.60;;;3.40;;
26977;SDS011;56314;48.088;11.642;2023-06-19T13:35:20;3.83;;;3.53;;
26977;SDS011;56314;48.088;11.642;2023-06-19T13:37:46;4.53;;;3.75;;
26977;SDS011;56314;48.088;11.642;2023-06-19T13:40:12;3.90;;;3.10;;
26977;SDS011;56314;48.088;11.642;2023-06-19T13:42:38;3.78;;;3.47;;
26977;SDS011;56314;48.088;11.642;2023-06-19T13:45:03;3.78;;;3.42;;
26977;SDS011;56314;48.088;11.642;2023-06-19T13:47:29;4.57;;;3.70;;
26977;SDS011;56314;48.088;11.642;2023-06-19T13:49:55;4.28;;;3.60;;
26977;SDS011;56314;48.088;11.642;2023-06-19T13:52:21;4.60;;;4.07;;
26977;SDS011;56314;48.088;11.642;2023-06-19T13:54:47;8.95;;;4.28;;
26977;SDS011;56314;48.088;11.642;2023-06-19T13:57:12;5.22;;;3.67;;
26977;SDS011;56314;48.088;11.642;2023-06-19T13:59:38;5.10;;;4.20;;
26977;SDS011;56314;48.088;11.642;2023-06-19T14:02:03;4.95;;;3.92;;
26977;SDS011;56314;48.088;11.642;2023-06-19T14:04:28;3.60;;;3.30;;
26977;SDS011;56314;48.088;11.642;2023-06-19T14:06:54;4.27;;;3.63;;
26977;SDS011;56314;48.088;11.642;2023-06-19T14:09:20;4.05;;;3.65;;
26977;SDS011;56314;48.088;11.642;2023-06-19T14:11:46;5.22;;;3.78;;
26977;SDS011;56314;48.088;11.642;2023-06-19T14:14:11;4.60;;;3.83;;
26977;SDS011;56314;48.088;11.642;2023-06-19T14:16:36;4.15;;;3.72;;
26977;SDS011;56314;48.088;11.642;2023-06-19T14:19:02;3.95;;;3.63;;
26977;SDS011;56314;48.088;11.642;2023-06-19T14:21:27;4.43;;;3.80;;
26977;SDS011;56314;48.088;11.642;2023-06-19T14:23:52;5.80;;;3.30;;
26977;SDS011;56314;48.088;11.642;2023-06-19T14:26:18;4.25;;;3.90;;
26977;SDS011;56314;48.088;11.642;2023-06-19T14:28:43;3.58;;;3.28;;
26977;SDS011;56314;48.088;11.642;2023-06-19T14:31:09;3.50;;;3.20;;
26977;SDS011;56314;48.088;11.642;2023-06-19T14:33:34;3.75;;;3.45;;